TimeCDT,TemperatureF,Dew PointF,Humidity,Sea Level PressureIn,VisibilityMPH,Wind Direction,Wind SpeedMPH,Gust SpeedMPH,PrecipitationIn,Events,Conditions,WindDirDegrees,DateUTC
12:11 AM,35.6,24.8,65,30.06,10.0,SSE,5.8,-,N/A,,Mostly Cloudy,160,2013-04-26 05:11:00
12:31 AM,35.6,23.0,60,30.05,10.0,South,4.6,-,N/A,,Mostly Cloudy,180,2013-04-26 05:31:00
12:51 AM,35.6,21.2,56,30.05,10.0,SSE,3.5,-,N/A,,Mostly Cloudy,160,2013-04-26 05:51:00
1:11 AM,33.8,21.2,60,30.04,10.0,South,3.5,-,N/A,,Mostly Cloudy,170,2013-04-26 06:11:00
1:31 AM,33.8,21.2,60,30.04,10.0,South,4.6,-,N/A,,Mostly Cloudy,170,2013-04-26 06:31:00
2:11 AM,33.8,21.2,60,30.02,10.0,SSE,3.5,-,N/A,,Overcast,160,2013-04-26 07:11:00
2:31 AM,33.8,21.2,60,30.01,10.0,SSE,3.5,-,N/A,,Mostly Cloudy,160,2013-04-26 07:31:00
2:51 AM,35.6,23.0,60,30.00,10.0,South,4.6,-,N/A,,Overcast,180,2013-04-26 07:51:00
3:11 AM,35.6,23.0,60,29.98,10.0,South,5.8,-,N/A,,Overcast,170,2013-04-26 08:11:00
3:32 AM,35.6,23.0,60,29.98,10.0,SSE,5.8,-,N/A,,Overcast,160,2013-04-26 08:32:00
3:51 AM,37.4,24.8,60,29.97,10.0,South,5.8,-,N/A,,Overcast,170,2013-04-26 08:51:00
4:11 AM,37.4,24.8,60,29.97,10.0,South,5.8,-,N/A,,Overcast,170,2013-04-26 09:11:00
4:31 AM,37.4,26.6,65,29.97,10.0,South,5.8,-,N/A,,Overcast,170,2013-04-26 09:31:00
4:51 AM,37.4,26.6,65,29.96,10.0,South,4.6,-,N/A,,Overcast,170,2013-04-26 09:51:00
5:11 AM,37.4,26.6,65,29.97,10.0,South,4.6,-,N/A,,Overcast,170,2013-04-26 10:11:00
5:32 AM,37.4,26.6,65,29.97,10.0,Calm,Calm,-,N/A,,Overcast,0,2013-04-26 10:32:00
5:51 AM,35.6,26.6,70,29.96,10.0,Calm,Calm,-,N/A,,Mostly Cloudy,0,2013-04-26 10:51:00
6:11 AM,35.6,26.6,70,29.96,10.0,Calm,Calm,-,N/A,,Scattered Clouds,0,2013-04-26 11:11:00
6:51 AM,33.8,26.6,75,29.97,10.0,Calm,Calm,-,N/A,,Scattered Clouds,0,2013-04-26 11:51:00
7:11 AM,37.4,30.2,75,29.98,10.0,Calm,Calm,-,N/A,,Scattered Clouds,0,2013-04-26 12:11:00
7:31 AM,39.2,30.2,70,29.98,10.0,Calm,Calm,-,N/A,,Scattered Clouds,0,2013-04-26 12:31:00
7:51 AM,41.0,30.2,65,29.98,10.0,South,6.9,-,N/A,,Clear,180,2013-04-26 12:51:00
8:11 AM,42.8,30.2,61,29.99,10.0,South,6.9,-,N/A,,Clear,170,2013-04-26 13:11:00
8:31 AM,42.8,30.2,61,29.99,10.0,South,6.9,-,N/A,,Clear,180,2013-04-26 13:31:00
8:51 AM,44.6,30.2,57,30.00,10.0,South,6.9,-,N/A,,Clear,180,2013-04-26 13:51:00
9:12 AM,46.4,30.2,53,30.00,10.0,South,5.8,16.1,N/A,,Clear,190,2013-04-26 14:12:00
9:31 AM,46.4,30.2,53,29.99,10.0,South,4.6,-,N/A,,Clear,180,2013-04-26 14:31:00
9:52 AM,46.4,30.2,53,29.99,10.0,SSW,6.9,-,N/A,,Clear,210,2013-04-26 14:52:00
10:11 AM,48.2,30.2,50,29.99,10.0,SSW,8.1,-,N/A,,Clear,210,2013-04-26 15:11:00
10:31 AM,51.8,32.0,47,29.99,10.0,SSW,5.8,-,N/A,,Clear,210,2013-04-26 15:31:00
10:51 AM,51.8,30.2,44,29.99,10.0,South,6.9,-,N/A,,Clear,190,2013-04-26 15:51:00
11:11 AM,53.6,32.0,44,29.99,10.0,SSW,5.8,-,N/A,,Scattered Clouds,210,2013-04-26 16:11:00
11:31 AM,55.4,33.8,44,29.99,10.0,SW,4.6,-,N/A,,Clear,230,2013-04-26 16:31:00
11:52 AM,55.4,33.8,44,30.00,10.0,SW,6.9,-,N/A,,Clear,230,2013-04-26 16:52:00
12:11 PM,57.2,33.8,41,30.00,10.0,West,3.5,-,N/A,,Clear,260,2013-04-26 17:11:00
12:32 PM,57.2,35.6,44,30.01,10.0,West,5.8,-,N/A,,Clear,260,2013-04-26 17:32:00
12:51 PM,57.2,32.0,38,29.99,10.0,WSW,4.6,-,N/A,,Clear,250,2013-04-26 17:51:00
1:11 PM,59.0,30.2,34,29.99,10.0,South,4.6,-,N/A,,Clear,180,2013-04-26 18:11:00
1:31 PM,60.8,32.0,34,29.99,10.0,SSW,8.1,-,N/A,,Clear,210,2013-04-26 18:31:00
1:51 PM,60.8,32.0,34,29.99,10.0,Calm,Calm,-,N/A,,Clear,0,2013-04-26 18:51:00
2:11 PM,60.8,33.8,36,29.99,10.0,West,8.1,-,N/A,,Clear,270,2013-04-26 19:11:00
2:31 PM,60.8,33.8,36,30.00,10.0,South,4.6,-,N/A,,Clear,180,2013-04-26 19:31:00
2:51 PM,62.6,30.2,30,30.00,10.0,South,3.5,-,N/A,,Clear,180,2013-04-26 19:51:00
3:11 PM,60.8,28.4,29,30.00,10.0,WSW,3.5,-,N/A,,Clear,250,2013-04-26 20:11:00
3:32 PM,62.6,30.2,30,30.00,10.0,SSW,4.6,-,N/A,,Clear,200,2013-04-26 20:32:00
3:52 PM,62.6,28.4,27,30.01,10.0,SSW,3.5,-,N/A,,Clear,200,2013-04-26 20:52:00
4:11 PM,62.6,28.4,27,30.01,10.0,Calm,Calm,-,N/A,,Clear,0,2013-04-26 21:11:00
4:31 PM,62.6,30.2,30,30.01,10.0,Calm,Calm,-,N/A,,Mostly Cloudy,0,2013-04-26 21:31:00
4:51 PM,62.6,28.4,27,30.02,10.0,NW,8.1,-,N/A,,Mostly Cloudy,320,2013-04-26 21:51:00
5:11 PM,62.6,28.4,27,30.02,10.0,NW,6.9,-,N/A,,Scattered Clouds,320,2013-04-26 22:11:00
5:31 PM,60.8,26.6,27,30.03,10.0,NW,4.6,-,N/A,,Scattered Clouds,320,2013-04-26 22:31:00
5:51 PM,60.8,26.6,27,30.03,10.0,West,3.5,-,N/A,,Scattered Clouds,280,2013-04-26 22:51:00
6:11 PM,62.6,28.4,27,30.04,10.0,SW,4.6,-,N/A,,Scattered Clouds,230,2013-04-26 23:11:00
6:31 PM,62.6,26.6,26,30.04,10.0,Calm,Calm,-,N/A,,Scattered Clouds,0,2013-04-26 23:31:00
6:51 PM,60.8,26.6,27,30.04,10.0,NW,3.5,-,N/A,,Scattered Clouds,320,2013-04-26 23:51:00
7:11 PM,57.2,26.6,31,30.05,10.0,Calm,Calm,-,N/A,,Clear,0,2013-04-27 00:11:00
7:31 PM,53.6,24.8,33,30.06,10.0,Calm,Calm,-,N/A,,Clear,0,2013-04-27 00:31:00
7:51 PM,46.4,24.8,43,30.06,10.0,Calm,Calm,-,N/A,,Clear,0,2013-04-27 00:51:00
8:11 PM,42.8,24.8,49,30.07,10.0,Calm,Calm,-,N/A,,Clear,0,2013-04-27 01:11:00
8:31 PM,39.2,24.8,56,30.07,10.0,Calm,Calm,-,N/A,,Clear,0,2013-04-27 01:31:00
8:51 PM,35.6,24.8,65,30.08,10.0,Calm,Calm,-,N/A,,Clear,0,2013-04-27 01:51:00
9:11 PM,35.6,24.8,65,30.09,10.0,Calm,Calm,-,N/A,,Clear,0,2013-04-27 02:11:00
9:32 PM,33.8,24.8,70,30.09,10.0,Calm,Calm,-,N/A,,Clear,0,2013-04-27 02:32:00
9:51 PM,32.0,23.0,69,30.09,10.0,Calm,Calm,-,N/A,,Clear,0,2013-04-27 02:51:00
10:11 PM,32.0,21.2,64,30.10,10.0,Calm,Calm,-,N/A,,Clear,0,2013-04-27 03:11:00
10:31 PM,30.2,23.0,75,30.10,10.0,Calm,Calm,-,N/A,,Clear,0,2013-04-27 03:31:00
10:51 PM,30.2,23.0,75,30.10,10.0,Calm,Calm,-,N/A,,Clear,0,2013-04-27 03:51:00
11:11 PM,30.2,23.0,75,30.10,10.0,Calm,Calm,-,N/A,,Clear,0,2013-04-27 04:11:00
11:31 PM,30.2,24.8,80,30.09,10.0,Calm,Calm,-,N/A,,Clear,0,2013-04-27 04:31:00
11:51 PM,30.2,24.8,80,30.10,10.0,Calm,Calm,-,N/A,,Clear,0,2013-04-27 04:51:00